sensor_id;sensor_type;location;lat;lon;timestamp;P1;durP1;ratioP1;P2;durP2;ratioP2
30080;SDS011;16902;50.816;12.828;2023-10-31T00:02:43;10.27;;;9.38;;
30080;SDS011;16902;50.816;12.828;2023-10-31T00:07:45;10.10;;;9.30;;
30080;SDS011;16902;50.816;12.828;2023-10-31T00:12:47;11.98;;;10.77;;
30080;SDS011;16902;50.816;12.828;2023-10-31T00:17:49;11.10;;;10.07;;
30080;SDS011;16902;50.816;12.828;2023-10-31T00:22:51;10.02;;;9.27;;
30080;SDS011;16902;50.816;12.828;2023-10-31T00:27:53;9.63;;;8.88;;
30080;SDS011;16902;50.816;12.828;2023-10-31T00:32:55;9.32;;;8.55;;
30080;SDS011;16902;50.816;12.828;2023-10-31T00:37:57;9.50;;;8.77;;
30080;SDS011;16902;50.816;12.828;2023-10-31T00:42:59;8.73;;;8.13;;
30080;SDS011;16902;50.816;12.828;2023-10-31T00:48:02;8.27;;;7.63;;
30080;SDS011;16902;50.816;12.828;2023-10-31T00:53:04;7.78;;;7.13;;
30080;SDS011;16902;50.816;12.828;2023-10-31T00:58:06;7.85;;;7.15;;
30080;SDS011;16902;50.816;12.828;2023-10-31T01:03:08;7.38;;;6.95;;
30080;SDS011;16902;50.816;12.828;2023-10-31T01:08:10;7.72;;;7.13;;
30080;SDS011;16902;50.816;12.828;2023-10-31T01:13:12;8.02;;;7.43;;
30080;SDS011;16902;50.816;12.828;2023-10-31T01:18:13;7.65;;;7.15;;
30080;SDS011;16902;50.816;12.828;2023-10-31T01:23:15;7.80;;;7.10;;
30080;SDS011;16902;50.816;12.828;2023-10-31T01:28:17;7.70;;;7.10;;
30080;SDS011;16902;50.816;12.828;2023-10-31T01:33:19;8.38;;;7.72;;
30080;SDS011;16902;50.816;12.828;2023-10-31T01:38:21;6.80;;;6.28;;
30080;SDS011;16902;50.816;12.828;2023-10-31T01:43:32;6.80;;;6.30;;
30080;SDS011;16902;50.816;12.828;2023-10-31T01:48:36;7.18;;;6.57;;
30080;SDS011;16902;50.816;12.828;2023-10-31T01:53:38;6.93;;;6.43;;
30080;SDS011;16902;50.816;12.828;2023-10-31T01:58:40;7.68;;;6.20;;
30080;SDS011;16902;50.816;12.828;2023-10-31T02:03:45;6.70;;;6.20;;
30080;SDS011;16902;50.816;12.828;2023-10-31T02:08:47;5.80;;;5.38;;
30080;SDS011;16902;50.816;12.828;2023-10-31T02:13:49;6.03;;;5.63;;
30080;SDS011;16902;50.816;12.828;2023-10-31T02:18:52;6.35;;;5.93;;
30080;SDS011;16902;50.816;12.828;2023-10-31T02:23:58;6.38;;;5.88;;
30080;SDS011;16902;50.816;12.828;2023-10-31T02:29:01;5.70;;;5.40;;
30080;SDS011;16902;50.816;12.828;2023-10-31T02:34:03;5.78;;;5.43;;
30080;SDS011;16902;50.816;12.828;2023-10-31T02:39:05;6.00;;;5.43;;
30080;SDS011;16902;50.816;12.828;2023-10-31T02:44:07;6.10;;;5.60;;
30080;SDS011;16902;50.816;12.828;2023-10-31T02:49:10;5.85;;;5.55;;
30080;SDS011;16902;50.816;12.828;2023-10-31T02:54:12;5.75;;;5.35;;
30080;SDS011;16902;50.816;12.828;2023-10-31T02:59:14;5.45;;;5.15;;
30080;SDS011;16902;50.816;12.828;2023-10-31T03:04:15;5.55;;;5.15;;
30080;SDS011;16902;50.816;12.828;2023-10-31T03:09:17;5.20;;;5.00;;
30080;SDS011;16902;50.816;12.828;2023-10-31T03:14:19;5.32;;;5.03;;
30080;SDS011;16902;50.816;12.828;2023-10-31T03:19:21;5.50;;;5.20;;
30080;SDS011;16902;50.816;12.828;2023-10-31T03:24:23;4.78;;;4.57;;
30080;SDS011;16902;50.816;12.828;2023-10-31T03:29:25;4.93;;;4.72;;
30080;SDS011;16902;50.816;12.828;2023-10-31T03:34:27;4.80;;;4.50;;
30080;SDS011;16902;50.816;12.828;2023-10-31T03:39:29;4.97;;;4.60;;
30080;SDS011;16902;50.816;12.828;2023-10-31T03:44:32;5.03;;;4.72;;
30080;SDS011;16902;50.816;12.828;2023-10-31T03:49:37;4.45;;;4.25;;
30080;SDS011;16902;50.816;12.828;2023-10-31T03:54:40;4.50;;;4.30;;
30080;SDS011;16902;50.816;12.828;2023-10-31T03:59:43;4.35;;;4.25;;
30080;SDS011;16902;50.816;12.828;2023-10-31T04:04:45;5.22;;;5.03;;
30080;SDS011;16902;50.816;12.828;2023-10-31T04:09:47;4.65;;;4.45;;
30080;SDS011;16902;50.816;12.828;2023-10-31T04:14:49;4.53;;;4.32;;
30080;SDS011;16902;50.816;12.828;2023-10-31T04:19:50;4.70;;;4.50;;
30080;SDS011;16902;50.816;12.828;2023-10-31T04:24:52;5.13;;;4.93;;
30080;SDS011;16902;50.816;12.828;2023-10-31T04:29:54;4.55;;;4.45;;
30080;SDS011;16902;50.816;12.828;2023-10-31T04:34:56;5.15;;;4.95;;
30080;SDS011;16902;50.816;12.828;2023-10-31T04:39:58;4.93;;;4.72;;
30080;SDS011;16902;50.816;12.828;2023-10-31T04:45:00;4.72;;;4.63;;
30080;SDS011;16902;50.816;12.828;2023-10-31T04:50:02;4.65;;;4.55;;
30080;SDS011;16902;50.816;12.828;2023-10-31T04:55:05;5.15;;;5.03;;
30080;SDS011;16902;50.816;12.828;2023-10-31T05:00:07;5.32;;;5.13;;
30080;SDS011;16902;50.816;12.828;2023-10-31T05:05:10;5.22;;;5.10;;
30080;SDS011;16902;50.816;12.828;2023-10-31T05:10:13;5.20;;;5.00;;
30080;SDS011;16902;50.816;12.828;2023-10-31T05:15:15;5.60;;;5.40;;
30080;SDS011;16902;50.816;12.828;2023-10-31T05:20:17;5.47;;;5.28;;
30080;SDS011;16902;50.816;12.828;2023-10-31T05:25:19;5.47;;;5.28;;
30080;SDS011;16902;50.816;12.828;2023-10-31T05:30:20;5.18;;;5.07;;
30080;SDS011;16902;50.816;12.828;2023-10-31T05:35:23;5.15;;;4.95;;
30080;SDS011;16902;50.816;12.828;2023-10-31T05:40:25;5.40;;;5.20;;
30080;SDS011;16902;50.816;12.828;2023-10-31T05:45:29;5.55;;;5.35;;
30080;SDS011;16902;50.816;12.828;2023-10-31T05:50:31;5.60;;;5.40;;
30080;SDS011;16902;50.816;12.828;2023-10-31T05:55:33;6.10;;;5.90;;
30080;SDS011;16902;50.816;12.828;2023-10-31T06:00:37;5.85;;;5.65;;
30080;SDS011;16902;50.816;12.828;2023-10-31T06:05:39;5.90;;;5.70;;
30080;SDS011;16902;50.816;12.828;2023-10-31T06:10:40;6.00;;;5.80;;
30080;SDS011;16902;50.816;12.828;2023-10-31T06:15:42;6.97;;;6.78;;
30080;SDS011;16902;50.816;12.828;2023-10-31T06:20:44;6.68;;;6.47;;
30080;SDS011;16902;50.816;12.828;2023-10-31T06:25:46;7.40;;;7.20;;
30080;SDS011;16902;50.816;12.828;2023-10-31T06:30:48;7.18;;;6.97;;
30080;SDS011;16902;50.816;12.828;2023-10-31T06:35:49;8.05;;;7.75;;
30080;SDS011;16902;50.816;12.828;2023-10-31T06:40:53;7.82;;;7.63;;
30080;SDS011;16902;50.816;12.828;2023-10-31T06:45:55;8.25;;;7.95;;
30080;SDS011;16902;50.816;12.828;2023-10-31T06:50:58;8.43;;;8.00;;
30080;SDS011;16902;50.816;12.828;2023-10-31T06:56:00;7.85;;;7.55;;
30080;SDS011;16902;50.816;12.828;2023-10-31T07:01:01;7.88;;;7.68;;
30080;SDS011;16902;50.816;12.828;2023-10-31T07:06:03;7.32;;;7.13;;
30080;SDS011;16902;50.816;12.828;2023-10-31T07:11:05;8.00;;;7.70;;
30080;SDS011;16902;50.816;12.828;2023-10-31T07:16:07;7.70;;;7.50;;
30080;SDS011;16902;50.816;12.828;2023-10-31T07:21:09;7.57;;;7.38;;
30080;SDS011;16902;50.816;12.828;2023-10-31T07:26:10;8.20;;;7.90;;
30080;SDS011;16902;50.816;12.828;2023-10-31T07:31:12;8.80;;;8.50;;
30080;SDS011;16902;50.816;12.828;2023-10-31T07:36:14;8.80;;;8.50;;
30080;SDS011;16902;50.816;12.828;2023-10-31T07:41:16;9.60;;;9.20;;
30080;SDS011;16902;50.816;12.828;2023-10-31T07:46:17;8.93;;;8.63;;
30080;SDS011;16902;50.816;12.828;2023-10-31T07:51:20;9.10;;;8.80;;
30080;SDS011;16902;50.816;12.828;2023-10-31T07:56:22;7.97;;;7.68;;
30080;SDS011;16902;50.816;12.828;2023-10-31T08:01:25;6.60;;;6.40;;
30080;SDS011;16902;50.816;12.828;2023-10-31T08:06:26;5.85;;;5.65;;
30080;SDS011;16902;50.816;12.828;2023-10-31T08:11:28;5.60;;;5.40;;
30080;SDS011;16902;50.816;12.828;2023-10-31T08:16:30;5.72;;;5.53;;
30080;SDS011;16902;50.816;12.828;2023-10-31T08:21:32;5.50;;;5.30;;
30080;SDS011;16902;50.816;12.828;2023-10-31T08:26:36;4.30;;;4.20;;
30080;SDS011;16902;50.816;12.828;2023-10-31T08:31:38;4.40;;;4.30;;
30080;SDS011;16902;50.816;12.828;2023-10-31T08:36:39;4.13;;;4.03;;
30080;SDS011;16902;50.816;12.828;2023-10-31T08:41:51;5.03;;;4.82;;
30080;SDS011;16902;50.816;12.828;2023-10-31T08:46:53;5.00;;;4.90;;
30080;SDS011;16902;50.816;12.828;2023-10-31T08:51:55;5.07;;;4.97;;
30080;SDS011;16902;50.816;12.828;2023-10-31T08:56:56;5.43;;;5.25;;
30080;SDS011;16902;50.816;12.828;2023-10-31T09:01:58;5.38;;;5.18;;
30080;SDS011;16902;50.816;12.828;2023-10-31T09:07:00;5.65;;;5.45;;
30080;SDS011;16902;50.816;12.828;2023-10-31T09:12:01;5.65;;;5.45;;
30080;SDS011;16902;50.816;12.828;2023-10-31T09:17:03;6.53;;;6.32;;
30080;SDS011;16902;50.816;12.828;2023-10-31T09:22:05;6.13;;;5.93;;
30080;SDS011;16902;50.816;12.828;2023-10-31T09:27:07;7.57;;;7.38;;
30080;SDS011;16902;50.816;12.828;2023-10-31T09:32:09;8.65;;;8.35;;
30080;SDS011;16902;50.816;12.828;2023-10-31T09:37:10;8.57;;;8.27;;
30080;SDS011;16902;50.816;12.828;2023-10-31T09:42:13;8.90;;;8.60;;
30080;SDS011;16902;50.816;12.828;2023-10-31T09:47:15;8.98;;;8.68;;
30080;SDS011;16902;50.816;12.828;2023-10-31T09:52:17;10.10;;;9.80;;
30080;SDS011;16902;50.816;12.828;2023-10-31T09:57:21;11.13;;;10.73;;
30080;SDS011;16902;50.816;12.828;2023-10-31T10:02:23;10.60;;;10.23;;
30080;SDS011;16902;50.816;12.828;2023-10-31T10:07:25;11.25;;;10.85;;
30080;SDS011;16902;50.816;12.828;2023-10-31T10:12:27;11.45;;;11.05;;
30080;SDS011;16902;50.816;12.828;2023-10-31T10:17:29;11.80;;;11.40;;
30080;SDS011;16902;50.816;12.828;2023-10-31T10:22:31;11.85;;;11.45;;
30080;SDS011;16902;50.816;12.828;2023-10-31T10:27:33;12.10;;;11.70;;
30080;SDS011;16902;50.816;12.828;2023-10-31T10:32:34;11.57;;;11.18;;
30080;SDS011;16902;50.816;12.828;2023-10-31T10:37:37;11.80;;;11.40;;
30080;SDS011;16902;50.816;12.828;2023-10-31T10:42:46;10.68;;;10.27;;
30080;SDS011;16902;50.816;12.828;2023-10-31T10:47:50;11.02;;;10.63;;
30080;SDS011;16902;50.816;12.828;2023-10-31T10:52:55;11.80;;;11.40;;
30080;SDS011;16902;50.816;12.828;2023-10-31T10:58:13;11.55;;;11.15;;
30080;SDS011;16902;50.816;12.828;2023-10-31T11:03:24;11.35;;;10.95;;
30080;SDS011;16902;50.816;12.828;2023-10-31T11:08:27;11.93;;;11.52;;
30080;SDS011;16902;50.816;12.828;2023-10-31T11:13:29;11.65;;;11.25;;
30080;SDS011;16902;50.816;12.828;2023-10-31T11:18:32;11.00;;;10.60;;
30080;SDS011;16902;50.816;12.828;2023-10-31T11:23:35;11.10;;;10.70;;
30080;SDS011;16902;50.816;12.828;2023-10-31T11:28:37;11.10;;;10.70;;
30080;SDS011;16902;50.816;12.828;2023-10-31T11:33:39;11.63;;;11.23;;
30080;SDS011;16902;50.816;12.828;2023-10-31T11:38:43;10.93;;;10.52;;
30080;SDS011;16902;50.816;12.828;2023-10-31T11:48:48;9.88;;;9.57;;
30080;SDS011;16902;50.816;12.828;2023-10-31T11:53:55;11.40;;;11.00;;
30080;SDS011;16902;50.816;12.828;2023-10-31T11:58:58;11.88;;;11.48;;
30080;SDS011;16902;50.816;12.828;2023-10-31T12:04:05;11.27;;;10.88;;
30080;SDS011;16902;50.816;12.828;2023-10-31T12:09:09;10.98;;;10.57;;
30080;SDS011;16902;50.816;12.828;2023-10-31T12:14:11;10.88;;;10.48;;
30080;SDS011;16902;50.816;12.828;2023-10-31T12:19:20;10.80;;;10.40;;
30080;SDS011;16902;50.816;12.828;2023-10-31T12:24:22;10.52;;;10.18;;
30080;SDS011;16902;50.816;12.828;2023-10-31T12:29:24;10.18;;;9.88;;
30080;SDS011;16902;50.816;12.828;2023-10-31T12:34:26;10.80;;;10.40;;
30080;SDS011;16902;50.816;12.828;2023-10-31T12:39:28;11.43;;;11.02;;
30080;SDS011;16902;50.816;12.828;2023-10-31T12:44:30;11.30;;;10.90;;
30080;SDS011;16902;50.816;12.828;2023-10-31T12:49:33;11.55;;;11.15;;
30080;SDS011;16902;50.816;12.828;2023-10-31T12:54:36;12.15;;;11.75;;
30080;SDS011;16902;50.816;12.828;2023-10-31T12:59:39;12.00;;;11.50;;
30080;SDS011;16902;50.816;12.828;2023-10-31T13:04:41;11.63;;;11.23;;
30080;SDS011;16902;50.816;12.828;2023-10-31T13:09:43;11.98;;;11.57;;
30080;SDS011;16902;50.816;12.828;2023-10-31T13:14:45;11.73;;;11.32;;
30080;SDS011;16902;50.816;12.828;2023-10-31T13:19:47;12.43;;;11.98;;
30080;SDS011;16902;50.816;12.828;2023-10-31T13:24:49;11.70;;;11.30;;
30080;SDS011;16902;50.816;12.828;2023-10-31T13:29:52;11.38;;;10.98;;
30080;SDS011;16902;50.816;12.828;2023-10-31T13:34:53;11.45;;;11.05;;
30080;SDS011;16902;50.816;12.828;2023-10-31T13:39:55;11.80;;;11.40;;
30080;SDS011;16902;50.816;12.828;2023-10-31T13:44:57;11.80;;;11.18;;
30080;SDS011;16902;50.816;12.828;2023-10-31T13:49:59;12.02;;;11.52;;
30080;SDS011;16902;50.816;12.828;2023-10-31T13:55:01;12.18;;;11.77;;
30080;SDS011;16902;50.816;12.828;2023-10-31T14:00:04;11.60;;;11.20;;
30080;SDS011;16902;50.816;12.828;2023-10-31T14:05:12;11.82;;;11.43;;
30080;SDS011;16902;50.816;12.828;2023-10-31T14:10:15;12.10;;;11.65;;
30080;SDS011;16902;50.816;12.828;2023-10-31T14:15:21;11.43;;;11.02;;
30080;SDS011;16902;50.816;12.828;2023-10-31T14:20:23;11.75;;;11.35;;
30080;SDS011;16902;50.816;12.828;2023-10-31T14:25:26;11.70;;;11.30;;
30080;SDS011;16902;50.816;12.828;2023-10-31T14:30:28;11.60;;;11.00;;
30080;SDS011;16902;50.816;12.828;2023-10-31T14:35:30;10.98;;;10.57;;
30080;SDS011;16902;50.816;12.828;2023-10-31T14:40:32;11.25;;;10.85;;
30080;SDS011;16902;50.816;12.828;2023-10-31T14:45:33;10.95;;;10.55;;
30080;SDS011;16902;50.816;12.828;2023-10-31T14:50:35;11.93;;;11.52;;
30080;SDS011;16902;50.816;12.828;2023-10-31T14:55:38;11.30;;;10.90;;
30080;SDS011;16902;50.816;12.828;2023-10-31T15:00:40;11.88;;;11.48;;
30080;SDS011;16902;50.816;12.828;2023-10-31T15:05:42;11.45;;;11.05;;
30080;SDS011;16902;50.816;12.828;2023-10-31T15:10:44;11.90;;;11.50;;
30080;SDS011;16902;50.816;12.828;2023-10-31T15:15:46;11.70;;;11.30;;
30080;SDS011;16902;50.816;12.828;2023-10-31T15:20:48;11.00;;;10.60;;
30080;SDS011;16902;50.816;12.828;2023-10-31T15:25:50;11.00;;;10.50;;
30080;SDS011;16902;50.816;12.828;2023-10-31T15:30:52;9.90;;;9.60;;
30080;SDS011;16902;50.816;12.828;2023-10-31T15:35:54;10.38;;;10.05;;
30080;SDS011;16902;50.816;12.828;2023-10-31T15:40:56;10.18;;;9.77;;
30080;SDS011;16902;50.816;12.828;2023-10-31T15:46:11;10.05;;;9.68;;
30080;SDS011;16902;50.816;12.828;2023-10-31T15:51:13;10.50;;;10.10;;
30080;SDS011;16902;50.816;12.828;2023-10-31T15:56:15;9.93;;;9.63;;
30080;SDS011;16902;50.816;12.828;2023-10-31T16:01:17;9.50;;;9.20;;
30080;SDS011;16902;50.816;12.828;2023-10-31T16:06:19;9.13;;;8.82;;
30080;SDS011;16902;50.816;12.828;2023-10-31T16:11:21;8.80;;;8.50;;
30080;SDS011;16902;50.816;12.828;2023-10-31T16:16:23;8.55;;;8.25;;
30080;SDS011;16902;50.816;12.828;2023-10-31T16:21:25;8.57;;;8.27;;
30080;SDS011;16902;50.816;12.828;2023-10-31T16:26:28;8.82;;;8.52;;
30080;SDS011;16902;50.816;12.828;2023-10-31T16:31:30;8.68;;;8.38;;
30080;SDS011;16902;50.816;12.828;2023-10-31T16:36:32;8.75;;;8.45;;
30080;SDS011;16902;50.816;12.828;2023-10-31T16:41:34;8.57;;;8.27;;
30080;SDS011;16902;50.816;12.828;2023-10-31T16:46:36;8.88;;;8.57;;
30080;SDS011;16902;50.816;12.828;2023-10-31T16:51:45;8.30;;;8.00;;
30080;SDS011;16902;50.816;12.828;2023-10-31T16:56:47;8.57;;;8.27;;
30080;SDS011;16902;50.816;12.828;2023-10-31T17:01:49;8.43;;;8.13;;
30080;SDS011;16902;50.816;12.828;2023-10-31T17:06:51;8.45;;;8.15;;
30080;SDS011;16902;50.816;12.828;2023-10-31T17:11:53;8.75;;;8.45;;
30080;SDS011;16902;50.816;12.828;2023-10-31T17:16:55;8.82;;;8.52;;
30080;SDS011;16902;50.816;12.828;2023-10-31T17:21:57;8.38;;;8.07;;
30080;SDS011;16902;50.816;12.828;2023-10-31T17:27:00;8.18;;;7.88;;
30080;SDS011;16902;50.816;12.828;2023-10-31T17:32:02;7.70;;;7.38;;
30080;SDS011;16902;50.816;12.828;2023-10-31T17:37:20;8.85;;;8.55;;
30080;SDS011;16902;50.816;12.828;2023-10-31T17:42:22;9.07;;;8.77;;
30080;SDS011;16902;50.816;12.828;2023-10-31T17:47:28;9.20;;;8.80;;
30080;SDS011;16902;50.816;12.828;2023-10-31T17:52:30;8.98;;;8.65;;
30080;SDS011;16902;50.816;12.828;2023-10-31T17:57:32;9.07;;;8.77;;
30080;SDS011;16902;50.816;12.828;2023-10-31T18:02:36;9.50;;;9.20;;
30080;SDS011;16902;50.816;12.828;2023-10-31T18:07:39;9.25;;;8.85;;
30080;SDS011;16902;50.816;12.828;2023-10-31T18:12:42;8.98;;;8.68;;
30080;SDS011;16902;50.816;12.828;2023-10-31T18:17:45;9.43;;;9.13;;
30080;SDS011;16902;50.816;12.828;2023-10-31T18:22:47;9.00;;;8.70;;
30080;SDS011;16902;50.816;12.828;2023-10-31T18:27:49;8.45;;;8.15;;
30080;SDS011;16902;50.816;12.828;2023-10-31T18:32:51;8.50;;;8.20;;
30080;SDS011;16902;50.816;12.828;2023-10-31T18:37:53;8.68;;;8.38;;
30080;SDS011;16902;50.816;12.828;2023-10-31T18:42:55;9.30;;;9.00;;
30080;SDS011;16902;50.816;12.828;2023-10-31T18:47:57;8.63;;;8.32;;
30080;SDS011;16902;50.816;12.828;2023-10-31T18:53:00;8.55;;;8.25;;
30080;SDS011;16902;50.816;12.828;2023-10-31T18:58:02;9.13;;;8.73;;
30080;SDS011;16902;50.816;12.828;2023-10-31T19:03:05;9.15;;;8.75;;
30080;SDS011;16902;50.816;12.828;2023-10-31T19:08:07;8.73;;;8.32;;
30080;SDS011;16902;50.816;12.828;2023-10-31T19:13:09;8.40;;;8.10;;
30080;SDS011;16902;50.816;12.828;2023-10-31T19:18:11;8.90;;;8.60;;
30080;SDS011;16902;50.816;12.828;2023-10-31T19:23:13;8.27;;;7.97;;
30080;SDS011;16902;50.816;12.828;2023-10-31T19:28:15;8.13;;;7.82;;
30080;SDS011;16902;50.816;12.828;2023-10-31T19:33:17;8.20;;;7.90;;
30080;SDS011;16902;50.816;12.828;2023-10-31T19:38:20;7.82;;;7.63;;
30080;SDS011;16902;50.816;12.828;2023-10-31T19:43:22;8.32;;;8.02;;
30080;SDS011;16902;50.816;12.828;2023-10-31T19:48:23;8.70;;;8.23;;
30080;SDS011;16902;50.816;12.828;2023-10-31T19:53:26;8.82;;;8.52;;
30080;SDS011;16902;50.816;12.828;2023-10-31T19:58:27;8.20;;;7.90;;
30080;SDS011;16902;50.816;12.828;2023-10-31T20:03:29;8.55;;;8.25;;
30080;SDS011;16902;50.816;12.828;2023-10-31T20:08:32;8.50;;;8.20;;
30080;SDS011;16902;50.816;12.828;2023-10-31T20:13:34;8.88;;;8.50;;
30080;SDS011;16902;50.816;12.828;2023-10-31T20:18:36;9.10;;;8.80;;
30080;SDS011;16902;50.816;12.828;2023-10-31T20:23:38;8.77;;;8.48;;
30080;SDS011;16902;50.816;12.828;2023-10-31T20:28:40;9.18;;;8.35;;
30080;SDS011;16902;50.816;12.828;2023-10-31T20:33:42;9.50;;;8.93;;
30080;SDS011;16902;50.816;12.828;2023-10-31T20:38:45;8.52;;;8.13;;
30080;SDS011;16902;50.816;12.828;2023-10-31T20:43:47;8.50;;;8.20;;
30080;SDS011;16902;50.816;12.828;2023-10-31T20:48:49;8.88;;;8.57;;
30080;SDS011;16902;50.816;12.828;2023-10-31T20:53:51;8.88;;;8.57;;
30080;SDS011;16902;50.816;12.828;2023-10-31T20:58:53;8.45;;;8.05;;
30080;SDS011;16902;50.816;12.828;2023-10-31T21:03:55;8.73;;;8.32;;
30080;SDS011;16902;50.816;12.828;2023-10-31T21:08:57;8.73;;;8.43;;
30080;SDS011;16902;50.816;12.828;2023-10-31T21:13:59;9.02;;;8.73;;
30080;SDS011;16902;50.816;12.828;2023-10-31T21:19:01;8.40;;;8.10;;
30080;SDS011;16902;50.816;12.828;2023-10-31T21:24:03;8.50;;;8.20;;
30080;SDS011;16902;50.816;12.828;2023-10-31T21:29:05;9.45;;;8.98;;
30080;SDS011;16902;50.816;12.828;2023-10-31T21:34:06;8.88;;;8.52;;
30080;SDS011;16902;50.816;12.828;2023-10-31T21:39:12;9.10;;;8.77;;
30080;SDS011;16902;50.816;12.828;2023-10-31T21:44:15;8.60;;;8.30;;
30080;SDS011;16902;50.816;12.828;2023-10-31T21:49:17;8.43;;;8.13;;
30080;SDS011;16902;50.816;12.828;2023-10-31T21:54:19;8.30;;;8.00;;
30080;SDS011;16902;50.816;12.828;2023-10-31T21:59:22;8.10;;;7.80;;
30080;SDS011;16902;50.816;12.828;2023-10-31T22:04:24;8.05;;;7.75;;
30080;SDS011;16902;50.816;12.828;2023-10-31T22:09:26;7.63;;;7.22;;
30080;SDS011;16902;50.816;12.828;2023-10-31T22:14:28;7.82;;;7.50;;
30080;SDS011;16902;50.816;12.828;2023-10-31T22:19:30;7.55;;;7.25;;
30080;SDS011;16902;50.816;12.828;2023-10-31T22:24:32;7.25;;;6.95;;
30080;SDS011;16902;50.816;12.828;2023-10-31T22:29:34;8.00;;;7.70;;
30080;SDS011;16902;50.816;12.828;2023-10-31T22:34:36;7.45;;;7.15;;
30080;SDS011;16902;50.816;12.828;2023-10-31T22:39:38;7.53;;;7.30;;
30080;SDS011;16902;50.816;12.828;2023-10-31T22:44:40;7.00;;;6.70;;
30080;SDS011;16902;50.816;12.828;2023-10-31T22:49:42;7.68;;;7.38;;
30080;SDS011;16902;50.816;12.828;2023-10-31T22:54:44;7.55;;;7.28;;
30080;SDS011;16902;50.816;12.828;2023-10-31T22:59:46;6.50;;;6.25;;
30080;SDS011;16902;50.816;12.828;2023-10-31T23:04:48;7.18;;;6.97;;
30080;SDS011;16902;50.816;12.828;2023-10-31T23:09:50;8.07;;;7.78;;
30080;SDS011;16902;50.816;12.828;2023-10-31T23:14:52;7.70;;;7.40;;
30080;SDS011;16902;50.816;12.828;2023-10-31T23:19:54;7.85;;;7.55;;
30080;SDS011;16902;50.816;12.828;2023-10-31T23:24:58;7.53;;;7.22;;
30080;SDS011;16902;50.816;12.828;2023-10-31T23:30:00;7.30;;;7.00;;
30080;SDS011;16902;50.816;12.828;2023-10-31T23:35:02;7.78;;;7.47;;
30080;SDS011;16902;50.816;12.828;2023-10-31T23:40:05;8.00;;;7.70;;
30080;SDS011;16902;50.816;12.828;2023-10-31T23:45:07;7.85;;;7.55;;
30080;SDS011;16902;50.816;12.828;2023-10-31T23:50:10;7.10;;;6.80;;
30080;SDS011;16902;50.816;12.828;2023-10-31T23:55:12;8.13;;;7.63;;
